createdAt,value
2017-05-29T00:01:48.944Z,45.4
2017-05-29T00:04:05.148Z,46.35
2017-05-29T00:06:29.843Z,46.08
2017-05-29T00:08:54.538Z,46.57
2017-05-29T00:11:19.236Z,47.52
2017-05-29T00:13:43.933Z,47.91
2017-05-29T00:16:08.620Z,48.66
2017-05-29T00:18:33.220Z,49.61
2017-05-29T00:20:49.444Z,49.34
2017-05-29T00:23:14.114Z,50.09
2017-05-29T00:25:38.810Z,49.9
2017-05-29T00:27:55.010Z,50.56
2017-05-29T00:30:19.703Z,50.29
2017-05-29T00:32:44.295Z,50.09
2017-05-29T00:35:08.888Z,50.58
2017-05-29T00:37:25.097Z,51.04
2017-05-29T00:39:49.677Z,51.33
2017-05-29T00:42:14.281Z,51.23
2017-05-29T00:44:30.471Z,51.91
2017-05-29T00:46:55.068Z,51.53
2017-05-29T00:49:11.192Z,51.5
2017-05-29T00:51:35.858Z,51.4
2017-05-29T00:53:51.983Z,51.59
2017-05-29T00:56:16.543Z,51.5
2017-05-29T00:58:32.634Z,51.21
2017-05-29T01:00:57.240Z,51.5
2017-05-29T01:03:13.432Z,51.69
2017-05-29T01:05:38.020Z,51.79
2017-05-29T01:08:02.620Z,51.5
2017-05-29T01:10:27.210Z,51.69
2017-05-29T01:12:51.808Z,51.69
2017-05-29T01:14:59.399Z,51.98
2017-05-29T01:17:15.529Z,52.47
2017-05-29T01:19:40.085Z,51.89
2017-05-29T01:22:04.679Z,51.79
2017-05-29T01:24:29.173Z,51.69
2017-05-29T01:26:53.765Z,51.79
2017-05-29T01:28:55.364Z,51.98
2017-05-29T01:31:11.520Z,51.69
2017-05-29T01:33:36.107Z,51.62
2017-05-29T01:36:00.618Z,51.98
2017-05-29T01:38:25.198Z,52.66
2017-05-29T01:40:49.794Z,52.47
2017-05-29T01:43:14.383Z,52.66
2017-05-29T01:45:38.980Z,52.56
2017-05-29T01:48:03.572Z,53.24
2017-05-29T01:50:28.163Z,53.34
2017-05-29T01:52:44.253Z,53.8
2017-05-29T01:55:00.348Z,54.19
2017-05-29T01:57:16.447Z,53.92
2017-05-29T01:59:41.040Z,55.16
2017-05-29T02:02:05.536Z,55.74
2017-05-29T02:04:21.631Z,55.16
2017-05-29T02:06:46.109Z,55.44
2017-05-29T02:08:48.385Z,55.26
2017-05-29T02:11:12.984Z,55.62
2017-05-29T02:13:37.476Z,56.26
2017-05-29T02:16:01.967Z,56.1
2017-05-29T02:18:26.452Z,56.2
2017-05-29T02:20:50.950Z,55.78
2017-05-29T02:23:15.438Z,55.62
2017-05-29T02:25:39.933Z,55.88
2017-05-29T02:28:04.425Z,56.07
2017-05-29T02:30:20.418Z,55.68
2017-05-29T02:32:44.906Z,55.88
2017-05-29T02:35:09.402Z,55.88
2017-05-29T02:37:19.430Z,56.36
2017-05-29T02:39:35.555Z,56.16
2017-05-29T02:42:00.035Z,56.36
2017-05-29T02:44:24.529Z,55.4
2017-05-29T02:46:49.016Z,55.3
2017-05-29T02:49:13.511Z,55.04
2017-05-29T02:51:29.515Z,55.78
2017-05-29T02:53:45.498Z,55.78
2017-05-29T02:56:09.992Z,55.49
2017-05-29T02:58:34.480Z,55.52
2017-05-29T03:00:58.973Z,55.58
2017-05-29T03:03:23.460Z,55.71
2017-05-29T03:05:47.955Z,55.81
2017-05-29T03:08:03.948Z,56
2017-05-29T03:10:19.938Z,56.75
2017-05-29T03:12:44.323Z,56.65
2017-05-29T03:15:00.259Z,57.04
2017-05-29T03:17:24.717Z,57.43
2017-05-29T03:19:40.702Z,57.43
2017-05-29T03:22:05.088Z,57.53
2017-05-29T03:24:21.078Z,57.53
2017-05-29T03:26:45.576Z,57.81
2017-05-29T03:29:10.069Z,58.49
2017-05-29T03:31:20.095Z,58.59
2017-05-29T03:33:27.653Z,58.78
2017-05-29T03:35:52.098Z,59.72
2017-05-29T03:38:16.595Z,59.82
2017-05-29T03:40:18.045Z,58.88
2017-05-29T03:42:42.534Z,59.43
2017-05-29T03:44:58.524Z,59.27
2017-05-29T03:47:14.418Z,59.27
2017-05-29T03:49:38.806Z,59.07
2017-05-29T03:52:03.299Z,59.07
2017-05-29T03:54:04.776Z,58.39
2017-05-29T03:56:29.241Z,58.98
2017-05-29T03:58:53.732Z,58.75
2017-05-29T04:01:18.123Z,58.3
2017-05-29T04:03:34.121Z,58.65
2017-05-29T04:05:58.604Z,59.05
2017-05-29T04:08:23.094Z,58.27
2017-05-29T04:10:47.617Z,57.59
2017-05-29T04:13:03.583Z,57.53
2017-05-29T04:15:28.075Z,56.85
2017-05-29T04:17:52.569Z,56.07
2017-05-29T04:20:17.064Z,56.46
2017-05-29T04:22:41.451Z,55.32
2017-05-29T04:25:05.839Z,55.3
2017-05-29T04:27:30.330Z,54.84
2017-05-29T04:29:46.317Z,55.13
2017-05-29T04:31:47.775Z,54.45
2017-05-29T04:33:57.793Z,54.74
2017-05-29T04:36:22.317Z,54.84
2017-05-29T04:38:38.323Z,55.04
2017-05-29T04:41:02.695Z,55.81
2017-05-29T04:43:18.684Z,55.52
2017-05-29T04:45:28.722Z,55.74
2017-05-29T04:47:44.736Z,54.86
2017-05-29T04:50:09.227Z,54.11
2017-05-29T04:52:19.258Z,53.83
2017-05-29T04:54:20.769Z,52.62
2017-05-29T04:56:45.333Z,47.59
2017-05-29T04:59:09.929Z,42.36
2017-05-29T05:01:34.637Z,36.94
2017-05-29T05:03:59.426Z,33.33
2017-05-29T05:06:24.460Z,30.15
2017-05-29T05:08:41.085Z,27.84
2017-05-29T05:11:06.285Z,25.44
2017-05-29T05:13:00.262Z,24.27
2017-05-29T05:15:25.787Z,22.34
2017-05-29T05:17:51.413Z,20.98
2017-05-29T05:19:53.187Z,20.3
2017-05-29T05:22:19.110Z,17.88
2017-05-29T05:24:45.042Z,16.8
2017-05-29T05:27:11.081Z,16.03
2017-05-29T05:29:37.210Z,16.03
2017-05-29T05:32:03.450Z,16.21
2017-05-29T05:34:29.676Z,15.91
2017-05-29T05:36:56.018Z,16.78
2017-05-29T05:39:22.461Z,15.24
2017-05-29T05:41:48.909Z,15.05
2017-05-29T05:44:15.350Z,14.56
2017-05-29T05:46:26.041Z,15.15
2017-05-29T05:48:52.609Z,15.53
2017-05-29T05:51:19.182Z,14.26
2017-05-29T05:53:45.775Z,14.56
2017-05-29T05:56:03.809Z,14.26
2017-05-29T05:58:30.446Z,13.87
2017-05-29T06:00:39.909Z,15.22
2017-05-29T06:02:57.956Z,17.17
2017-05-29T06:05:24.584Z,17.07
2017-05-29T06:07:51.150Z,18.24
2017-05-29T06:10:17.631Z,22.22
2017-05-29T06:12:35.368Z,24.14
2017-05-29T06:14:52.988Z,27.11
2017-05-29T06:17:10.481Z,29.52
2017-05-29T06:19:36.371Z,31.35
2017-05-29T06:22:02.120Z,32.02
2017-05-29T06:24:10.642Z,30.4
2017-05-29T06:26:36.232Z,29.63
2017-05-29T06:29:01.755Z,28.1
2017-05-29T06:31:03.522Z,19.06
2017-05-29T06:33:29.310Z,16.13
2017-05-29T06:35:46.697Z,17.21
2017-05-29T06:38:12.822Z,20.12
2017-05-29T06:40:39.137Z,21.57
2017-05-29T06:43:05.624Z,20.32
2017-05-29T06:45:32.299Z,20.79
2017-05-29T06:47:59.072Z,22.06
2017-05-29T06:50:25.917Z,20.53
2017-05-29T06:52:52.736Z,19.07
2017-05-29T06:55:19.503Z,19.18
2017-05-29T06:57:37.621Z,19.07
2017-05-29T07:00:04.272Z,19.93
2017-05-29T07:02:30.802Z,24.56
2017-05-29T07:04:57.221Z,22.33
2017-05-29T07:07:14.972Z,24.66
2017-05-29T07:09:41.252Z,22.55
2017-05-29T07:12:07.475Z,23.49
2017-05-29T07:14:33.615Z,22.34
2017-05-29T07:16:59.719Z,21.11
2017-05-29T07:19:25.791Z,21.19
2017-05-29T07:21:51.851Z,21.39
2017-05-29T07:24:09.299Z,21.39
2017-05-29T07:26:26.717Z,22.36
2017-05-29T07:28:52.640Z,22.14
2017-05-29T07:31:10.036Z,21.68
2017-05-29T07:33:27.451Z,21.39
2017-05-29T07:35:44.802Z,23.59
2017-05-29T07:38:02.205Z,22.36
2017-05-29T07:40:28.158Z,22.92
2017-05-29T07:42:45.571Z,23.04
2017-05-29T07:45:11.544Z,22.07
2017-05-29T07:47:37.554Z,22.44
2017-05-29T07:49:54.981Z,24.26
2017-05-29T07:52:21.024Z,22.72
2017-05-29T07:54:47.048Z,22.72
2017-05-29T07:57:13.077Z,21.09
2017-05-29T07:59:30.559Z,21.58
2017-05-29T08:01:56.597Z,21.58
2017-05-29T08:03:58.496Z,20.5
2017-05-29T08:06:24.654Z,19.92
2017-05-29T08:08:50.798Z,19.8
2017-05-29T08:11:17.957Z,19.34
2017-05-29T08:13:44.105Z,18.06
2017-05-29T08:16:10.292Z,18.94
2017-05-29T08:18:27.860Z,17.96
2017-05-29T08:20:53.984Z,18.15
2017-05-29T08:23:20.125Z,17.97
2017-05-29T08:25:46.257Z,16.89
2017-05-29T08:28:12.407Z,18.52
2017-05-29T08:30:38.539Z,16.65
2017-05-29T08:32:56.096Z,17.54
2017-05-29T08:35:13.622Z,17
2017-05-29T08:37:39.715Z,17.52
2017-05-29T08:40:05.780Z,17.32
2017-05-29T08:42:31.881Z,18.01
2017-05-29T08:44:57.943Z,17.74
2017-05-29T08:47:24.026Z,17.91
2017-05-29T08:49:50.136Z,18.6
2017-05-29T08:52:16.221Z,19.24
2017-05-29T08:54:42.285Z,18.58
2017-05-29T08:57:08.338Z,18.77
2017-05-29T08:59:25.811Z,20.33
2017-05-29T09:01:43.264Z,18.59
2017-05-29T09:04:09.297Z,19.48
2017-05-29T09:06:35.303Z,19.17
2017-05-29T09:09:01.340Z,19.84
2017-05-29T09:11:27.340Z,21.58
2017-05-29T09:13:53.355Z,20.57
2017-05-29T09:16:19.350Z,20.81
2017-05-29T09:18:45.287Z,21.46
2017-05-29T09:21:02.691Z,19.89
2017-05-29T09:23:13.180Z,20.59
2017-05-29T09:25:39.160Z,20.97
2017-05-29T09:28:05.038Z,20.21
2017-05-29T09:30:30.920Z,19.54
2017-05-29T09:32:56.811Z,18.96
2017-05-29T09:34:59.163Z,19.15
2017-05-29T09:37:25.091Z,18.48
2017-05-29T09:39:51.021Z,17.49
2017-05-29T09:42:16.959Z,16.93
2017-05-29T09:44:42.928Z,16.5
2017-05-29T09:47:08.868Z,17.4
2017-05-29T09:49:34.834Z,17.77
2017-05-29T09:52:00.789Z,18.94
2017-05-29T09:54:02.624Z,17.77
2017-05-29T09:56:20.034Z,17.98
2017-05-29T09:58:45.964Z,18.16
2017-05-29T10:01:11.855Z,17.97
2017-05-29T10:03:37.759Z,18.94
2017-05-29T10:06:03.626Z,19.32
2017-05-29T10:08:29.474Z,19.1
2017-05-29T10:10:55.277Z,19.62
2017-05-29T10:13:21.062Z,19.81
2017-05-29T10:15:46.831Z,20.18
2017-05-29T10:18:12.698Z,20.17
2017-05-29T10:20:38.376Z,20.08
2017-05-29T10:22:55.616Z,20.07
2017-05-29T10:25:12.811Z,19.89
2017-05-29T10:27:38.534Z,19.66
2017-05-29T10:30:04.254Z,19.57
2017-05-29T10:32:29.951Z,20.86
2017-05-29T10:34:55.609Z,21.53
2017-05-29T10:37:21.278Z,21.53
2017-05-29T10:39:46.896Z,20.86
2017-05-29T10:42:12.550Z,21.45
2017-05-29T10:44:38.217Z,21.55
2017-05-29T10:47:03.886Z,20.86
2017-05-29T10:49:29.579Z,20.86
2017-05-29T10:51:46.686Z,21.53
2017-05-29T10:53:57.099Z,21.03
2017-05-29T10:56:23.755Z,20.56
2017-05-29T10:58:40.837Z,19.85
2017-05-29T11:01:06.427Z,22.75
2017-05-29T11:03:14.974Z,22.11
2017-05-29T11:05:23.507Z,22.19
2017-05-29T11:07:49.102Z,21.5
2017-05-29T11:10:14.627Z,19.54
2017-05-29T11:12:40.226Z,20.72
2017-05-29T11:15:05.781Z,20.73
2017-05-29T11:17:31.372Z,21.14
2017-05-29T11:19:56.935Z,21.81
2017-05-29T11:22:07.334Z,21.34
2017-05-29T11:24:32.940Z,20.04
2017-05-29T11:26:58.556Z,19.76
2017-05-29T11:29:24.126Z,20.15
2017-05-29T11:31:49.729Z,21.13
2017-05-29T11:34:15.346Z,18.57
2017-05-29T11:36:40.976Z,19.95
2017-05-29T11:39:06.599Z,19.65
2017-05-29T11:41:32.194Z,18.69
2017-05-29T11:43:57.840Z,19.36
2017-05-29T11:46:23.429Z,20.16
2017-05-29T11:48:40.526Z,20.94
2017-05-29T11:50:57.641Z,20.55
2017-05-29T11:53:23.291Z,20.35
2017-05-29T11:55:48.965Z,19.98
2017-05-29T11:58:14.565Z,19.98
2017-05-29T12:00:31.622Z,20.16
2017-05-29T12:02:57.246Z,19.17
2017-05-29T12:05:14.427Z,20.62
2017-05-29T12:07:16.209Z,20.04
2017-05-29T12:09:41.869Z,19.76
2017-05-29T12:12:07.522Z,20.15
2017-05-29T12:14:24.649Z,18.59
2017-05-29T12:16:50.262Z,20.07
2017-05-29T12:19:15.915Z,21.02
2017-05-29T12:21:41.524Z,21.22
2017-05-29T12:23:34.752Z,21.22
2017-05-29T12:26:00.400Z,22.37
2017-05-29T12:28:25.988Z,22.27
2017-05-29T12:30:51.546Z,23.16
2017-05-29T12:33:17.109Z,23.16
2017-05-29T12:35:42.699Z,23.35
2017-05-29T12:38:08.223Z,23.84
2017-05-29T12:40:33.761Z,24.32
2017-05-29T12:42:36.274Z,23.73
2017-05-29T12:45:01.814Z,24.23
2017-05-29T12:47:27.273Z,25.01
2017-05-29T12:49:52.728Z,25.4
2017-05-29T12:52:09.640Z,26.54
2017-05-29T12:54:19.994Z,26.74
2017-05-29T12:56:45.426Z,26.46
2017-05-29T12:59:10.822Z,25.68
2017-05-29T13:01:27.728Z,25.96
2017-05-29T13:03:53.074Z,26.07
2017-05-29T13:06:18.495Z,26.73
2017-05-29T13:08:43.860Z,26.54
2017-05-29T13:10:45.585Z,25.67
2017-05-29T13:12:53.957Z,25.87
2017-05-29T13:15:10.802Z,25.88
2017-05-29T13:17:36.196Z,25.79
2017-05-29T13:20:01.539Z,25.59
2017-05-29T13:22:26.882Z,25.78
2017-05-29T13:24:52.203Z,25.87
2017-05-29T13:27:17.575Z,26.07
2017-05-29T13:29:34.434Z,25.5
2017-05-29T13:31:51.293Z,25.6
2017-05-29T13:34:16.635Z,26.07
2017-05-29T13:36:41.948Z,26.85
2017-05-29T13:39:07.305Z,26.37
2017-05-29T13:41:32.679Z,25.87
2017-05-29T13:43:40.996Z,25.2
2017-05-29T13:46:06.378Z,25.6
2017-05-29T13:48:31.782Z,25.59
2017-05-29T13:50:48.665Z,26.08
2017-05-29T13:53:05.530Z,25.89
2017-05-29T13:55:30.894Z,26.21
2017-05-29T13:57:32.613Z,26.01
2017-05-29T13:59:58.060Z,26.97
2017-05-29T14:02:14.974Z,27.06
2017-05-29T14:04:40.397Z,25.9
2017-05-29T14:07:05.836Z,25.54
2017-05-29T14:09:31.262Z,25.14
2017-05-29T14:11:56.724Z,25.34
2017-05-29T14:14:13.661Z,25.71
2017-05-29T14:16:39.138Z,25.33
2017-05-29T14:19:04.616Z,25.61
2017-05-29T14:21:30.072Z,25.04
2017-05-29T14:23:55.554Z,26.03
2017-05-29T14:26:21.028Z,24.96
2017-05-29T14:28:46.501Z,25.46
2017-05-29T14:31:12.009Z,23.58
2017-05-29T14:33:22.378Z,25.65
2017-05-29T14:35:47.917Z,25.15
2017-05-29T14:38:13.431Z,25.42
2017-05-29T14:40:38.949Z,24.56
2017-05-29T14:43:04.493Z,25.55
2017-05-29T14:45:21.442Z,23.8
2017-05-29T14:47:46.930Z,23.41
2017-05-29T14:50:12.457Z,22.82
2017-05-29T14:52:29.470Z,21.44
2017-05-29T14:54:55.036Z,21.25
2017-05-29T14:57:20.581Z,21.47
2017-05-29T14:59:46.167Z,21.67
2017-05-29T15:02:11.762Z,22.33
2017-05-29T15:04:28.880Z,24.73
2017-05-29T15:06:46.041Z,24.27
2017-05-29T15:09:11.767Z,23.66
2017-05-29T15:11:37.463Z,24.84
2017-05-29T15:14:03.087Z,25.14
2017-05-29T15:16:28.693Z,25.62
2017-05-29T15:18:45.814Z,25.35
2017-05-29T15:21:02.937Z,25.33
2017-05-29T15:23:04.829Z,24.86
2017-05-29T15:25:30.414Z,23.79
2017-05-29T15:27:56.029Z,24.45
2017-05-29T15:30:04.526Z,23.69
2017-05-29T15:32:30.065Z,24.06
2017-05-29T15:34:40.424Z,24.74
2017-05-29T15:37:05.943Z,25.13
2017-05-29T15:39:31.431Z,22.8
2017-05-29T15:41:56.904Z,23.68
2017-05-29T15:43:58.655Z,22.09
2017-05-29T15:46:00.968Z,22.19
2017-05-29T15:48:26.513Z,20.61
2017-05-29T15:50:51.968Z,21.39
2017-05-29T15:53:17.451Z,21.9
2017-05-29T15:55:42.925Z,19.82
2017-05-29T15:57:59.878Z,20.5
2017-05-29T16:00:25.382Z,20.42
2017-05-29T16:02:50.805Z,20.52
2017-05-29T16:05:07.761Z,20.5
2017-05-29T16:07:33.224Z,20.1
2017-05-29T16:09:58.674Z,21.3
2017-05-29T16:12:24.174Z,20.53
2017-05-29T16:14:49.653Z,20.24
2017-05-29T16:17:06.596Z,20.23
2017-05-29T16:19:32.083Z,19.82
2017-05-29T16:21:49.061Z,21.41
2017-05-29T16:24:14.585Z,21.81
2017-05-29T16:26:40.068Z,22
2017-05-29T16:28:57.187Z,21.8
2017-05-29T16:31:14.186Z,22.88
2017-05-29T16:33:39.807Z,22.58
2017-05-29T16:36:05.429Z,22.39
2017-05-29T16:38:31.038Z,22.99
2017-05-29T16:40:56.664Z,22
2017-05-29T16:43:22.280Z,22.28
2017-05-29T16:45:47.892Z,22.17
2017-05-29T16:48:04.928Z,22.77
2017-05-29T16:50:30.531Z,22.67
2017-05-29T16:52:56.132Z,23.66
2017-05-29T16:55:13.267Z,23.07
2017-05-29T16:57:38.880Z,22.88
2017-05-29T17:00:04.395Z,23.44
2017-05-29T17:02:29.909Z,23.54
2017-05-29T17:04:55.432Z,21.57
2017-05-29T17:06:57.188Z,20.7
2017-05-29T17:09:22.695Z,19.61
2017-05-29T17:11:48.216Z,19.42
2017-05-29T17:14:13.733Z,19.32
2017-05-29T17:16:30.747Z,19.52
2017-05-29T17:18:56.151Z,20.61
2017-05-29T17:21:21.688Z,20.52
2017-05-29T17:23:47.193Z,21.1
2017-05-29T17:26:12.722Z,21.31
2017-05-29T17:28:23.212Z,21.39
2017-05-29T17:30:48.794Z,21.19
2017-05-29T17:33:16.353Z,21.68
2017-05-29T17:35:41.868Z,21.58
2017-05-29T17:37:58.885Z,22.08
2017-05-29T17:40:15.807Z,21.57
2017-05-29T17:42:32.701Z,22.06
2017-05-29T17:44:58.112Z,21.28
2017-05-29T17:47:23.535Z,21.98
2017-05-29T17:49:50.073Z,21.88
2017-05-29T17:52:01.824Z,22.66
2017-05-29T17:54:18.786Z,22.75
2017-05-29T17:56:44.304Z,23.26
2017-05-29T17:59:09.814Z,23.54
2017-05-29T18:01:35.334Z,23.55
2017-05-29T18:04:00.849Z,23.16
2017-05-29T18:06:17.862Z,23.55
2017-05-29T18:08:43.396Z,23.54
2017-05-29T18:11:08.893Z,23.44
2017-05-29T18:13:35.280Z,23.62
2017-05-29T18:16:05.968Z,25.2
2017-05-29T18:18:31.483Z,26.75
2017-05-29T18:20:57.216Z,28.31
2017-05-29T18:23:14.106Z,28.69
2017-05-29T18:25:39.466Z,29.37
2017-05-29T18:28:04.804Z,29.57
2017-05-29T18:30:30.249Z,29.96
2017-05-29T18:32:55.673Z,28.91
2017-05-29T18:35:20.991Z,28.99
2017-05-29T18:37:47.529Z,28.89
2017-05-29T18:40:12.930Z,28
2017-05-29T18:42:38.346Z,28.51
2017-05-29T18:45:03.655Z,29.86
2017-05-29T18:46:56.831Z,29.76
2017-05-29T18:49:22.220Z,28.77
2017-05-29T18:51:47.530Z,29.63
2017-05-29T18:54:12.842Z,29.44
2017-05-29T18:56:38.156Z,30.12
2017-05-29T18:58:48.468Z,30.5
2017-05-29T19:01:13.823Z,30.5
2017-05-29T19:03:39.117Z,30.21
2017-05-29T19:05:55.833Z,30.32
2017-05-29T19:08:21.044Z,30.4
2017-05-29T19:10:29.251Z,30.4
2017-05-29T19:12:54.466Z,30.7
2017-05-29T19:15:19.659Z,30.71
2017-05-29T19:17:44.885Z,30.32
2017-05-29T19:20:10.193Z,30.6
2017-05-29T19:22:18.410Z,30.21
2017-05-29T19:24:35.110Z,31.57
2017-05-29T19:27:00.319Z,31.37
2017-05-29T19:29:17.033Z,31.27
2017-05-29T19:31:42.261Z,31.35
2017-05-29T19:34:07.452Z,33.39
2017-05-29T19:36:32.653Z,34.86
2017-05-29T19:38:57.858Z,35.61
2017-05-29T19:41:23.067Z,35.71
2017-05-29T19:43:48.278Z,35.73
2017-05-29T19:46:13.394Z,36.2
2017-05-29T19:48:38.491Z,35.73
2017-05-29T19:51:03.592Z,35.73
2017-05-29T19:53:28.699Z,36.2
2017-05-29T19:55:53.803Z,36.67
2017-05-29T19:58:04.035Z,36.59
2017-05-29T20:00:29.169Z,36.96
2017-05-29T20:02:54.279Z,36.79
2017-05-29T20:05:19.336Z,37.26
2017-05-29T20:07:30.083Z,37.65
2017-05-29T20:09:55.257Z,37.65
2017-05-29T20:12:20.268Z,37.93
2017-05-29T20:14:21.960Z,37.73
2017-05-29T20:16:24.030Z,37.55
2017-05-29T20:18:49.077Z,37.75
2017-05-29T20:21:14.194Z,37.54
2017-05-29T20:23:39.179Z,37.75
2017-05-29T20:25:40.825Z,37.75
2017-05-29T20:28:05.952Z,38.42
2017-05-29T20:30:30.953Z,42.29
2017-05-29T20:32:55.979Z,43.82
2017-05-29T20:34:57.580Z,43.71
2017-05-29T20:37:22.623Z,42.79
2017-05-29T20:39:47.623Z,42.86
2017-05-29T20:42:04.124Z,46.93
2017-05-29T20:44:29.020Z,47.49
2017-05-29T20:46:53.919Z,46.06
2017-05-29T20:49:18.720Z,45.07
2017-05-29T20:51:43.518Z,43.61
2017-05-29T20:54:08.316Z,47.96
2017-05-29T20:56:33.112Z,50.02
2017-05-29T20:58:49.430Z,46.84
2017-05-29T21:01:14.218Z,51.11
2017-05-29T21:03:39.030Z,51.31
2017-05-29T21:05:46.809Z,50.6
2017-05-29T21:08:11.607Z,53.16
2017-05-29T21:10:27.897Z,59.11
2017-05-29T21:12:52.600Z,57.75
2017-05-29T21:15:17.407Z,58.82
2017-05-29T21:17:42.196Z,61.64
2017-05-29T21:19:44.514Z,61.35
2017-05-29T21:22:09.256Z,60.47
2017-05-29T21:24:34.065Z,60.96
2017-05-29T21:26:58.767Z,60.67
2017-05-29T21:29:23.562Z,61.77
2017-05-29T21:31:39.860Z,62.51
2017-05-29T21:34:04.677Z,62.16
2017-05-29T21:36:29.467Z,62.64
2017-05-29T21:38:54.263Z,63.87
2017-05-29T21:41:19.057Z,63.23
2017-05-29T21:43:43.858Z,62.71
2017-05-29T21:46:08.680Z,63
2017-05-29T21:48:33.458Z,62.9
2017-05-29T21:50:58.158Z,62.51
2017-05-29T21:53:22.955Z,62.38
2017-05-29T21:55:39.258Z,61.61
2017-05-29T21:58:03.953Z,59.57
2017-05-29T22:00:28.742Z,60.38
2017-05-29T22:02:53.441Z,58.79
2017-05-29T22:05:09.736Z,58.59
2017-05-29T22:07:34.442Z,57.62
2017-05-29T22:09:50.730Z,59.57
2017-05-29T22:12:15.433Z,57.14
2017-05-29T22:14:40.148Z,58.79
2017-05-29T22:17:04.926Z,59.11
2017-05-29T22:19:29.606Z,58.21
2017-05-29T22:21:39.808Z,55.68
2017-05-29T22:24:04.577Z,55
2017-05-29T22:26:20.767Z,54.29
2017-05-29T22:28:45.470Z,54.9
2017-05-29T22:31:10.166Z,55
2017-05-29T22:33:03.212Z,54.32
2017-05-29T22:35:27.914Z,53.35
2017-05-29T22:37:29.511Z,53.38
2017-05-29T22:39:45.770Z,56
2017-05-29T22:42:10.470Z,60.08
2017-05-29T22:44:26.687Z,61.96
2017-05-29T22:46:51.363Z,61.77
2017-05-29T22:49:16.058Z,61.57
2017-05-29T22:51:40.755Z,60.79
2017-05-29T22:54:05.554Z,61.08
2017-05-29T22:56:30.236Z,61.67
2017-05-29T22:58:46.579Z,61.77
2017-05-29T23:01:11.345Z,62.45
2017-05-29T23:03:36.041Z,62.74
2017-05-29T23:06:00.762Z,62.74
2017-05-29T23:08:25.434Z,62.32
2017-05-29T23:10:50.133Z,59.43
2017-05-29T23:13:14.825Z,59.89
2017-05-29T23:15:39.630Z,57.78
2017-05-29T23:18:04.326Z,59.23
2017-05-29T23:20:29.022Z,56.29
2017-05-29T23:22:45.317Z,58.82
2017-05-29T23:25:01.526Z,60.18
2017-05-29T23:27:26.216Z,56.29
2017-05-29T23:29:50.905Z,57.65
2017-05-29T23:31:52.493Z,57.04
2017-05-29T23:33:54.042Z,57.62
2017-05-29T23:36:18.813Z,54.22
2017-05-29T23:38:35.036Z,55.32
2017-05-29T23:40:59.735Z,52.76
2017-05-29T23:43:24.404Z,53.25
2017-05-29T23:45:49.096Z,55.36
2017-05-29T23:48:13.802Z,56.14
2017-05-29T23:50:38.488Z,55.49
2017-05-29T23:53:03.082Z,57.21
2017-05-29T23:55:27.677Z,57.11
2017-05-29T23:57:52.264Z,58.64
